Time;durP1;ratioP1;P1;durP2;ratioP2;P2;SDS_P1;SDS_P2;PMS_P1;PMS_P2;Temp;Humidity;BMP_temperature;BMP_pressure;BME280_temperature;BME280_humidity;BME280_pressure;Samples;Min_cycle;Max_cycle;Signal;HPM_P1;HPM_P2
2021/10/17 00:00:03;;;;;;;;;;;;;;;21.25;42.35;95939.81;1040851;28;1244;-60
2021/10/17 00:00:34;;;;;;;;;;;;;;;21.22;42.28;95940.38;1041068;28;910;-59
2021/10/17 00:01:04;;;;;;;;;;;;;;;21.21;42.17;95938.78;1040948;28;1486;-60
2021/10/17 00:01:34;;;;;;;;;;;;;;;21.20;42.29;95948.56;1041327;28;800;-60
2021/10/17 00:02:05;;;;;;;;;;;;;;;21.22;42.17;95949.09;1044711;28;962;-59
2021/10/17 00:02:35;;;;;;;;;;;;;;;21.22;42.11;95948.28;1039399;28;943;-59
2021/10/17 00:03:05;;;;;;;;;;;;;;;21.20;42.55;95947.78;1039818;28;860;-58
2021/10/17 00:03:36;;;;;;;;;;;;;;;21.20;42.28;95947.78;1036838;28;867;-60
2021/10/17 00:04:06;;;;;;;;;;;;;;;21.20;42.15;95947.78;1040730;28;741;-60
2021/10/17 00:04:36;;;;;;;;;;;;;;;21.19;42.26;95946.19;1039947;28;1374;-60
2021/10/17 00:05:07;;;;;;;;;;;;;;;21.20;42.11;95947.78;1037015;28;777;-59
2021/10/17 00:05:38;;;;;;;;;;;;;;;21.21;42.28;95954.59;1036671;28;797;-59
2021/10/17 00:06:08;;;;;;;;;;;;;;;21.20;42.14;95948.56;1036631;28;709;-59
2021/10/17 00:06:38;;;;;;;;;;;;;;;21.19;42.13;95949.63;1036965;28;1081;-58
2021/10/17 00:07:10;;;;;;;;;;;;;;;21.19;42.24;95951.47;1040960;28;726;-60
2021/10/17 00:07:40;;;;;;;;;;;;;;;21.21;42.25;95949.34;1044845;28;812;-60
2021/10/17 00:08:11;;;;;;;;;;;;;;;21.20;42.21;95958.31;1040259;28;841;-59
2021/10/17 00:08:41;;;;;;;;;;;;;;;21.20;42.44;95953.84;1044957;28;1113;-58
2021/10/17 00:09:11;;;;;;;;;;;;;;;21.18;42.15;95955.97;1045032;28;935;-59
2021/10/17 00:09:42;;;;;;;;;;;;;;;21.18;42.38;95950.69;1044720;28;1204;-59
2021/10/17 00:10:24;;;;;;;;;;;;;;;21.19;42.29;95951.47;1045013;28;797;-60
2021/10/17 00:10:55;;;;;;;;;;;;;;;21.22;42.18;95953.56;1044842;28;1203;-59
2021/10/17 00:11:25;;;;;;;;;;;;;;;21.23;42.36;95953.28;1044863;28;891;-59
2021/10/17 00:11:56;;;;;;;;;;;;;;;21.21;42.14;95954.59;1044657;28;1138;-58
2021/10/17 00:12:26;;;;;;;;;;;;;;;21.21;42.17;95957.25;1040481;28;1110;-61
2021/10/17 00:12:57;;;;;;;;;;;;;;;21.19;42.05;95962.00;1039979;28;1010;-59
2021/10/17 00:13:27;;;;;;;;;;;;;;;21.22;42.20;95958.84;1040329;28;868;-60
2021/10/17 00:13:58;;;;;;;;;;;;;;;21.19;42.28;95956.72;1036888;28;892;-58
2021/10/17 00:14:28;;;;;;;;;;;;;;;21.16;42.10;95959.91;1036081;28;809;-60
2021/10/17 00:14:58;;;;;;;;;;;;;;;21.17;42.22;95951.72;1040866;28;873;-60
2021/10/17 00:15:29;;;;;;;;;;;;;;;21.18;42.13;95960.44;1040713;28;1914;-59
2021/10/17 00:15:59;;;;;;;;;;;;;;;21.16;42.24;95955.44;1036867;28;722;-60
2021/10/17 00:16:29;;;;;;;;;;;;;;;21.18;42.28;95957.81;1036649;28;1271;-58
2021/10/17 00:17:00;;;;;;;;;;;;;;;21.19;42.29;95959.38;1040881;28;730;-60
2021/10/17 00:17:30;;;;;;;;;;;;;;;21.18;42.08;95957.81;1040838;28;871;-59
2021/10/17 00:18:01;;;;;;;;;;;;;;;21.18;42.43;95960.44;1039143;28;1107;-59
2021/10/17 00:18:31;;;;;;;;;;;;;;;21.17;42.42;95953.56;1044807;28;821;-60
2021/10/17 00:19:02;;;;;;;;;;;;;;;21.16;42.43;95957.28;1040706;28;1316;-60
2021/10/17 00:19:32;;;;;;;;;;;;;;;21.14;42.30;95959.41;1040767;28;1073;-59
2021/10/17 00:20:03;;;;;;;;;;;;;;;21.16;42.17;95955.44;1036612;28;1454;-60
2021/10/17 00:20:34;;;;;;;;;;;;;;;21.14;42.45;95954.13;1032757;28;1547;-60
2021/10/17 00:21:04;;;;;;;;;;;;;;;21.14;42.18;95960.22;1036539;28;1442;-59
2021/10/17 00:21:34;;;;;;;;;;;;;;;21.14;42.22;95959.41;1036732;28;962;-59
2021/10/17 00:22:05;;;;;;;;;;;;;;;21.14;42.52;95960.22;1036075;28;1050;-59
2021/10/17 00:22:36;;;;;;;;;;;;;;;21.12;42.10;95950.97;1040603;28;733;-60
2021/10/17 00:23:07;;;;;;;;;;;;;;;21.14;42.19;95954.13;1044205;28;840;-58
2021/10/17 00:23:37;;;;;;;;;;;;;;;21.16;42.06;95955.44;1044981;28;702;-59
2021/10/17 00:24:07;;;;;;;;;;;;;;;21.17;42.23;95959.66;1044716;28;1117;-59
2021/10/17 00:24:38;;;;;;;;;;;;;;;21.17;42.34;95948.31;1044293;28;801;-60
2021/10/17 00:25:08;;;;;;;;;;;;;;;21.16;42.40;95954.66;1040710;28;749;-60
2021/10/17 00:25:39;;;;;;;;;;;;;;;21.15;42.36;95950.44;1040933;28;820;-59
2021/10/17 00:26:09;;;;;;;;;;;;;;;21.15;42.22;95953.84;1040763;28;1000;-59
2021/10/17 00:26:40;;;;;;;;;;;;;;;21.15;42.18;95950.44;1036386;28;1240;-59
2021/10/17 00:27:10;;;;;;;;;;;;;;;21.14;42.37;95949.66;1036469;28;1483;-60
2021/10/17 00:27:40;;;;;;;;;;;;;;;21.12;42.02;95950.97;1036386;28;1136;-59
2021/10/17 00:28:11;;;;;;;;;;;;;;;21.15;42.32;95953.06;1040271;28;733;-59
2021/10/17 00:28:41;;;;;;;;;;;;;;;21.13;42.34;95950.72;1032126;28;1216;-60
2021/10/17 00:29:11;;;;;;;;;;;;;;;21.16;42.22;95946.75;1036671;28;778;-59
2021/10/17 00:29:42;;;;;;;;;;;;;;;21.16;42.06;95952.81;1036577;28;1284;-58
2021/10/17 00:30:13;;;;;;;;;;;;;;;21.14;42.36;95954.13;1036840;28;726;-57
2021/10/17 00:30:43;;;;;;;;;;;;;;;21.13;42.25;95948.06;1036723;28;789;-56
2021/10/17 00:31:13;;;;;;;;;;;;;;;21.15;42.17;95956.50;1040790;28;805;-59
2021/10/17 00:31:44;;;;;;;;;;;;;;;21.13;42.18;95950.72;1036613;28;837;-58
2021/10/17 00:32:14;;;;;;;;;;;;;;;21.13;42.31;95955.19;1036591;28;850;-59
2021/10/17 00:32:44;;;;;;;;;;;;;;;21.11;42.39;95955.47;1035360;28;864;-59
2021/10/17 00:33:15;;;;;;;;;;;;;;;21.11;42.40;95952.81;1040158;28;1034;-59
2021/10/17 00:33:45;;;;;;;;;;;;;;;21.08;42.21;95948.88;1044928;28;1022;-58
2021/10/17 00:34:16;;;;;;;;;;;;;;;21.10;42.22;95953.09;1044624;28;994;-57
2021/10/17 00:34:46;;;;;;;;;;;;;;;21.08;42.23;95955.22;1036581;28;820;-59
2021/10/17 00:35:17;;;;;;;;;;;;;;;21.11;42.20;95944.13;1040412;28;1906;-60
2021/10/17 00:35:47;;;;;;;;;;;;;;;21.10;42.46;95953.09;1040621;28;769;-60
2021/10/17 00:36:18;;;;;;;;;;;;;;;21.09;42.17;95954.94;1036397;28;1208;-59
2021/10/17 00:36:48;;;;;;;;;;;;;;;21.12;42.23;95957.06;1032592;28;1414;-59
2021/10/17 00:37:19;;;;;;;;;;;;;;;21.10;42.12;95953.91;1032215;28;804;-60
2021/10/17 00:37:49;;;;;;;;;;;;;;;21.11;42.26;95952.81;1036559;28;1042;-59
2021/10/17 00:38:19;;;;;;;;;;;;;;;21.10;42.21;95963.66;1040316;28;767;-59
2021/10/17 00:38:49;;;;;;;;;;;;;;;21.12;42.24;95957.06;1040828;28;800;-60
2021/10/17 00:39:20;;;;;;;;;;;;;;;21.11;42.13;95965.22;1040813;28;816;-59
2021/10/17 00:39:50;;;;;;;;;;;;;;;21.11;42.42;95965.22;1040632;28;1178;-59
2021/10/17 00:40:22;;;;;;;;;;;;;;;21.11;42.32;95962.56;1040791;28;875;-60
2021/10/17 00:40:53;;;;;;;;;;;;;;;21.12;42.30;95962.31;1036650;28;1156;-60
2021/10/17 00:41:23;;;;;;;;;;;;;;;21.11;42.35;95970.47;1035183;28;682;-59
2021/10/17 00:41:53;;;;;;;;;;;;;;;21.08;42.20;95972.59;1032283;28;824;-60
2021/10/17 00:42:24;;;;;;;;;;;;;;;21.11;42.04;95965.22;1032622;28;1172;-59
2021/10/17 00:42:57;;;;;;;;;;;;;;;21.10;42.17;95968.91;1032362;28;1117;-59
2021/10/17 00:43:27;;;;;;;;;;;;;;;21.13;42.10;95971.00;1033379;28;797;-59
2021/10/17 00:43:58;;;;;;;;;;;;;;;21.10;42.28;95974.97;1040543;28;731;-59
2021/10/17 00:44:29;;;;;;;;;;;;;;;21.10;42.21;95974.19;1036823;28;788;-60
2021/10/17 00:45:00;;;;;;;;;;;;;;;21.09;42.38;95968.13;1037393;28;791;-59
2021/10/17 00:45:31;;;;;;;;;;;;;;;21.10;42.31;95974.19;1040713;28;835;-59
2021/10/17 00:46:01;;;;;;;;;;;;;;;21.07;42.25;95975.50;1036706;28;863;-59
2021/10/17 00:46:31;;;;;;;;;;;;;;;21.10;42.07;95977.63;1040745;28;816;-58
2021/10/17 00:47:02;;;;;;;;;;;;;;;21.10;42.07;95974.97;1040911;28;722;-59
2021/10/17 00:47:32;;;;;;;;;;;;;;;21.08;42.40;95976.31;1039392;28;803;-60
2021/10/17 00:48:04;;;;;;;;;;;;;;;21.06;42.38;95973.94;1044012;28;767;-60
2021/10/17 00:48:34;;;;;;;;;;;;;;;21.07;42.15;95978.16;1044339;28;842;-59
2021/10/17 00:49:05;;;;;;;;;;;;;;;21.07;42.12;95980.78;1044671;28;811;-60
2021/10/17 00:49:35;;;;;;;;;;;;;;;21.08;42.32;95981.59;1045085;28;1252;-60
2021/10/17 00:50:06;;;;;;;;;;;;;;;21.08;42.29;95982.38;1044720;28;757;-55
2021/10/17 00:50:36;;;;;;;;;;;;;;;21.11;42.16;95981.03;1040759;28;776;-59
2021/10/17 00:51:06;;;;;;;;;;;;;;;21.08;42.19;95983.13;1028080;28;1278;-57
2021/10/17 00:51:37;;;;;;;;;;;;;;;21.11;42.10;95986.28;1028140;28;820;-59
2021/10/17 00:52:07;;;;;;;;;;;;;;;21.08;42.19;95973.69;1028275;28;753;-59
2021/10/17 00:52:38;;;;;;;;;;;;;;;21.07;42.16;95983.41;1032287;28;912;-59
2021/10/17 00:53:08;;;;;;;;;;;;;;;21.08;42.29;95982.38;1036638;28;1059;-59
2021/10/17 00:53:39;;;;;;;;;;;;;;;21.09;41.97;95983.94;1040389;28;1247;-59
2021/10/17 00:54:09;;;;;;;;;;;;;;;21.08;42.33;95981.59;1040668;28;1034;-56
2021/10/17 00:54:43;;;;;;;;;;;;;;;21.07;42.14;95980.78;1036264;28;797;-58
2021/10/17 00:55:14;;;;;;;;;;;;;;;21.09;41.97;95983.94;1040751;28;963;-59
2021/10/17 00:55:45;;;;;;;;;;;;;;;21.06;42.06;95984.50;1036309;28;1930;-59
2021/10/17 00:56:16;;;;;;;;;;;;;;;21.08;42.14;95983.13;1033966;28;812;-59
2021/10/17 00:56:46;;;;;;;;;;;;;;;21.06;42.33;95984.50;1036132;28;1038;-59
2021/10/17 00:57:16;;;;;;;;;;;;;;;21.05;42.21;95981.06;1032795;28;769;-59
2021/10/17 00:57:48;;;;;;;;;;;;;;;21.05;42.22;95985.53;1032325;28;1051;-58
2021/10/17 00:58:18;;;;;;;;;;;;;;;21.05;42.19;95978.44;1032748;28;1101;-59
2021/10/17 00:58:49;;;;;;;;;;;;;;;21.04;42.30;95982.09;1036634;28;803;-59
2021/10/17 00:59:19;;;;;;;;;;;;;;;21.05;42.00;95978.44;1036312;28;1018;-58
2021/10/17 00:59:49;;;;;;;;;;;;;;;21.04;42.11;95979.47;1040381;28;1241;-56
2021/10/17 01:00:19;;;;;;;;;;;;;;;21.03;42.01;95980.53;1044842;28;1014;-58
2021/10/17 01:00:50;;;;;;;;;;;;;;;21.04;42.25;95976.84;1044775;28;1001;-59
2021/10/17 01:01:20;;;;;;;;;;;;;;;21.03;42.27;95977.91;1044715;28;796;-60
2021/10/17 01:01:51;;;;;;;;;;;;;;;21.07;42.15;95980.78;1044087;28;789;-59
2021/10/17 01:02:21;;;;;;;;;;;;;;;21.07;42.04;95978.16;1044555;28;1026;-59
2021/10/17 01:02:51;;;;;;;;;;;;;;;21.05;42.23;95975.78;1043564;28;697;-59
2021/10/17 01:03:22;;;;;;;;;;;;;;;21.03;42.09;95975.28;1040755;28;739;-58
2021/10/17 01:03:52;;;;;;;;;;;;;;;21.03;42.33;95980.53;1044471;28;785;-59
2021/10/17 01:04:22;;;;;;;;;;;;;;;21.04;42.18;95982.09;1044384;28;730;-58
2021/10/17 01:04:53;;;;;;;;;;;;;;;21.02;42.33;95972.88;1040577;28;809;-59
2021/10/17 01:05:23;;;;;;;;;;;;;;;21.02;42.05;95981.59;1044135;28;820;-58
2021/10/17 01:05:54;;;;;;;;;;;;;;;21.04;42.18;95978.72;1043687;28;792;-60
2021/10/17 01:06:24;;;;;;;;;;;;;;;21.03;42.13;95979.75;1040640;28;730;-59
2021/10/17 01:06:55;;;;;;;;;;;;;;;21.05;42.16;95975.78;1040186;28;765;-59
2021/10/17 01:07:25;;;;;;;;;;;;;;;21.05;42.02;95972.38;1036638;28;836;-58
2021/10/17 01:07:57;;;;;;;;;;;;;;;21.06;42.10;95976.59;1035987;28;770;-56
2021/10/17 01:08:27;;;;;;;;;;;;;;;21.03;42.27;95972.63;1040422;28;963;-59
2021/10/17 01:08:57;;;;;;;;;;;;;;;21.03;41.99;95970.00;1044783;28;844;-58
2021/10/17 01:09:28;;;;;;;;;;;;;;;21.04;41.96;95976.06;1044864;28;1521;-59
2021/10/17 01:10:07;;;;;;;;;;;;;;;21.05;42.10;95969.72;1040199;28;1260;-59
2021/10/17 01:10:39;;;;;;;;;;;;;;;21.04;41.96;95976.84;1040777;28;761;-58
2021/10/17 01:11:10;;;;;;;;;;;;;;;21.04;42.06;95968.94;1042305;28;749;-57
2021/10/17 01:11:42;;;;;;;;;;;;;;;21.05;42.04;95975.78;1044708;28;852;-58
2021/10/17 01:12:12;;;;;;;;;;;;;;;21.08;42.06;95976.31;1044018;28;855;-58
2021/10/17 01:12:44;;;;;;;;;;;;;;;21.06;41.85;95974.72;1044917;28;796;-58
2021/10/17 01:13:20;;;;;;;;;;;;;;;21.06;41.79;95964.19;1044799;28;1007;-56
2021/10/17 01:13:58;;;;;;;;;;;;;;;21.08;41.99;95971.84;1044755;28;805;-55
2021/10/17 01:14:28;;;;;;;;;;;;;;;21.06;41.92;95969.44;1044038;28;770;-58
2021/10/17 01:15:00;;;;;;;;;;;;;;;21.08;42.23;95973.69;1046397;28;761;-55
2021/10/17 01:15:54;;;;;;;;;;;;;;;21.04;42.32;95971.56;1043913;28;1037;-56
2021/10/17 01:16:29;;;;;;;;;;;;;;;21.03;42.11;95969.22;1043671;28;836;-58
2021/10/17 01:17:00;;;;;;;;;;;;;;;21.04;42.07;95968.16;1039790;28;831;-55
2021/10/17 01:17:30;;;;;;;;;;;;;;;21.03;42.20;95971.84;1040596;28;821;-56
2021/10/17 01:18:02;;;;;;;;;;;;;;;21.02;42.21;95971.06;1040619;28;844;-56
2021/10/17 01:18:33;;;;;;;;;;;;;;;21.04;42.23;95971.56;1036221;28;1455;-57
2021/10/17 01:19:03;;;;;;;;;;;;;;;21.02;41.94;95965.78;1036803;28;719;-58
2021/10/17 01:19:33;;;;;;;;;;;;;;;21.00;42.00;95965.22;1036527;28;820;-56
2021/10/17 01:20:05;;;;;;;;;;;;;;;20.99;42.05;95966.31;1033054;28;900;-59
2021/10/17 01:20:55;;;;;;;;;;;;;;;21.00;42.21;95972.34;1040398;28;1157;-58
2021/10/17 01:21:46;;;;;;;;;;;;;;;20.99;42.02;95960.25;1042450;28;1120;-55
2021/10/17 01:22:29;;;;;;;;;;;;;;;21.00;41.89;95965.22;1040103;28;1360;-57
2021/10/17 01:23:00;;;;;;;;;;;;;;;21.04;41.88;95966.28;1040631;28;828;-58
2021/10/17 01:23:31;;;;;;;;;;;;;;;21.01;41.90;95964.19;1040569;28;1436;-56
2021/10/17 01:24:01;;;;;;;;;;;;;;;21.01;42.18;95964.19;1040583;28;793;-58
2021/10/17 01:24:31;;;;;;;;;;;;;;;21.03;41.98;95967.38;1039985;28;804;-58
2021/10/17 01:25:11;;;;;;;;;;;;;;;21.02;42.10;95962.34;1036508;28;1197;-58
2021/10/17 01:25:44;;;;;;;;;;;;;;;21.03;41.77;95961.31;1037488;28;1218;-58
2021/10/17 01:26:20;;;;;;;;;;;;;;;21.01;41.98;95966.03;1040194;28;1351;-57
2021/10/17 01:27:11;;;;;;;;;;;;;;;21.00;42.12;95956.53;1037886;28;1054;-58
2021/10/17 01:28:01;;;;;;;;;;;;;;;20.99;41.91;95955.75;1040500;28;1216;-59
2021/10/17 01:28:51;;;;;;;;;;;;;;;21.00;42.13;95961.78;1042678;28;1357;-58
2021/10/17 01:29:22;;;;;;;;;;;;;;;20.98;41.77;95958.66;1042001;28;843;-59
2021/10/17 01:29:52;;;;;;;;;;;;;;;20.99;41.89;95957.59;1044693;28;1197;-56
2021/10/17 01:30:23;;;;;;;;;;;;;;;21.02;41.96;95952.59;1040215;28;808;-58
2021/10/17 01:30:53;;;;;;;;;;;;;;;21.01;42.13;95952.84;1040703;28;851;-57
2021/10/17 01:31:33;;;;;;;;;;;;;;;21.00;41.97;95957.31;1044743;28;769;-56
2021/10/17 01:32:04;;;;;;;;;;;;;;;21.00;42.15;95959.97;1044128;28;887;-58
2021/10/17 01:32:34;;;;;;;;;;;;;;;21.00;42.11;95953.88;1044284;28;820;-58
2021/10/17 01:33:05;;;;;;;;;;;;;;;21.01;42.07;95953.66;1043531;28;959;-59
2021/10/17 01:33:35;;;;;;;;;;;;;;;21.01;42.04;95955.47;1040474;28;1180;-55
2021/10/17 01:34:06;;;;;;;;;;;;;;;21.00;42.11;95953.88;1040659;28;963;-57
2021/10/17 01:34:36;;;;;;;;;;;;;;;20.98;41.96;95954.16;1040252;28;844;-56
2021/10/17 01:35:06;;;;;;;;;;;;;;;20.98;42.13;95950.75;1044452;28;1022;-58
2021/10/17 01:35:37;;;;;;;;;;;;;;;21.01;42.00;95950.22;1040344;28;1910;-57
2021/10/17 01:36:07;;;;;;;;;;;;;;;21.02;41.90;95951.81;1036409;28;1085;-59
2021/10/17 01:36:38;;;;;;;;;;;;;;;21.03;41.81;95951.56;1040803;28;975;-58
2021/10/17 01:37:08;;;;;;;;;;;;;;;21.00;42.04;95949.41;1039745;28;848;-58
2021/10/17 01:37:39;;;;;;;;;;;;;;;20.99;41.95;95952.34;1040505;28;987;-58
2021/10/17 01:38:10;;;;;;;;;;;;;;;20.98;42.07;95953.38;1044707;28;932;-58
2021/10/17 01:38:40;;;;;;;;;;;;;;;20.98;41.90;95948.91;1040543;28;1092;-58
2021/10/17 01:39:11;;;;;;;;;;;;;;;21.00;42.13;95953.88;1040438;28;1002;-57
2021/10/17 01:39:41;;;;;;;;;;;;;;;20.99;42.03;95953.13;1036434;28;1221;-56
2021/10/17 01:40:12;;;;;;;;;;;;;;;20.98;41.87;95946.25;1032649;28;695;-57
2021/10/17 01:40:42;;;;;;;;;;;;;;;21.00;41.89;95948.63;1035986;28;836;-56
2021/10/17 01:41:13;;;;;;;;;;;;;;;21.00;41.98;95948.63;1036471;28;1042;-57
2021/10/17 01:41:43;;;;;;;;;;;;;;;20.99;41.81;95950.50;1040708;28;796;-57
2021/10/17 01:42:14;;;;;;;;;;;;;;;21.01;41.87;95950.22;1043805;28;820;-58
2021/10/17 01:42:44;;;;;;;;;;;;;;;20.98;41.85;95943.63;1040328;28;729;-57
2021/10/17 01:43:15;;;;;;;;;;;;;;;20.97;42.06;95947.34;1036085;28;852;-58
2021/10/17 01:43:45;;;;;;;;;;;;;;;20.98;41.98;95946.25;1033137;28;825;-59
2021/10/17 01:44:26;;;;;;;;;;;;;;;20.96;41.88;95948.38;1028137;28;1377;-59
2021/10/17 01:44:56;;;;;;;;;;;;;;;20.98;42.04;95937.56;1034063;28;1038;-59
2021/10/17 01:45:28;;;;;;;;;;;;;;;20.97;42.00;95949.19;1037663;28;863;-59
2021/10/17 01:45:58;;;;;;;;;;;;;;;20.97;42.06;95942.06;1042492;28;753;-59
2021/10/17 01:46:28;;;;;;;;;;;;;;;20.98;41.99;95943.63;1044744;28;1054;-58
2021/10/17 01:46:59;;;;;;;;;;;;;;;21.00;41.95;95941.50;1040069;28;844;-58
2021/10/17 01:47:29;;;;;;;;;;;;;;;20.99;41.84;95939.94;1036105;28;1006;-59
2021/10/17 01:47:59;;;;;;;;;;;;;;;20.99;41.89;95947.06;1035237;28;1069;-58
2021/10/17 01:48:30;;;;;;;;;;;;;;;21.00;41.80;95938.88;1036564;28;1002;-57
2021/10/17 01:49:00;;;;;;;;;;;;;;;20.97;41.93;95936.78;1040624;28;781;-58
2021/10/17 01:49:31;;;;;;;;;;;;;;;20.95;41.97;95941.56;1044625;28;851;-57
2021/10/17 01:50:01;;;;;;;;;;;;;;;20.97;41.85;95946.53;1044535;28;1216;-59
2021/10/17 01:50:31;;;;;;;;;;;;;;;20.97;41.69;95943.91;1044433;28;805;-62
2021/10/17 01:51:02;;;;;;;;;;;;;;;20.97;41.85;95942.06;1044746;28;1009;-57
2021/10/17 01:51:32;;;;;;;;;;;;;;;21.01;41.93;95939.66;1044681;28;1010;-60
2021/10/17 01:52:06;;;;;;;;;;;;;;;21.03;41.80;95950.75;1039918;28;852;-59
2021/10/17 01:52:36;;;;;;;;;;;;;;;20.99;41.87;95947.84;1040213;28;788;-60
2021/10/17 01:53:07;;;;;;;;;;;;;;;20.99;41.70;95947.06;1036297;28;780;-58
2021/10/17 01:53:37;;;;;;;;;;;;;;;20.99;41.84;95944.44;1032864;28;983;-57
2021/10/17 01:54:07;;;;;;;;;;;;;;;20.96;42.14;95943.13;1032021;28;821;-60
2021/10/17 01:54:37;;;;;;;;;;;;;;;20.95;41.86;95943.41;1031868;28;931;-58
2021/10/17 01:55:08;;;;;;;;;;;;;;;20.94;41.99;95950.50;1036545;28;801;-57
2021/10/17 01:55:38;;;;;;;;;;;;;;;20.95;41.89;95940.75;1040463;28;1902;-56
2021/10/17 01:56:09;;;;;;;;;;;;;;;20.95;41.88;95941.56;1044667;28;751;-59
2021/10/17 01:56:39;;;;;;;;;;;;;;;20.96;41.80;95942.31;1045007;28;780;-58
2021/10/17 01:57:09;;;;;;;;;;;;;;;20.95;42.03;95941.56;1043634;28;860;-60
2021/10/17 01:57:40;;;;;;;;;;;;;;;20.99;41.85;95932.03;1044459;28;1026;-59
2021/10/17 01:58:10;;;;;;;;;;;;;;;20.96;41.97;95942.31;1044209;28;1156;-59
2021/10/17 01:58:40;;;;;;;;;;;;;;;20.96;41.92;95937.03;1044569;28;804;-59
2021/10/17 01:59:11;;;;;;;;;;;;;;;20.94;41.93;95934.69;1044161;28;1069;-59
2021/10/17 01:59:41;;;;;;;;;;;;;;;20.95;42.04;95936.28;1040390;28;1288;-59
2021/10/17 02:00:12;;;;;;;;;;;;;;;20.94;42.13;95939.97;1036187;28;1105;-59
2021/10/17 02:00:42;;;;;;;;;;;;;;;20.94;41.79;95941.81;1036401;28;718;-59
2021/10/17 02:01:12;;;;;;;;;;;;;;;20.94;42.00;95941.81;1036515;28;812;-59
2021/10/17 02:01:44;;;;;;;;;;;;;;;20.95;41.86;95941.56;1036261;28;848;-58
2021/10/17 02:02:14;;;;;;;;;;;;;;;20.94;42.02;95931.25;1035447;28;1046;-60
2021/10/17 02:02:45;;;;;;;;;;;;;;;20.94;41.73;95939.16;1031215;28;1023;-58
2021/10/17 02:03:15;;;;;;;;;;;;;;;20.94;41.99;95934.69;1036501;28;735;-59
2021/10/17 02:03:45;;;;;;;;;;;;;;;20.94;41.76;95932.06;1040665;28;1030;-59
2021/10/17 02:04:16;;;;;;;;;;;;;;;20.95;41.97;95931.00;1039819;28;1022;-59
2021/10/17 02:04:46;;;;;;;;;;;;;;;20.93;41.79;95930.50;1044438;28;800;-58
2021/10/17 02:05:16;;;;;;;;;;;;;;;20.93;41.92;95927.84;1040561;28;808;-59
2021/10/17 02:05:47;;;;;;;;;;;;;;;20.92;41.77;95934.19;1040476;28;796;-59
2021/10/17 02:06:17;;;;;;;;;;;;;;;20.93;41.88;95938.41;1040121;28;1054;-57
2021/10/17 02:06:47;;;;;;;;;;;;;;;20.95;41.91;95931.00;1040211;28;855;-59
2021/10/17 02:07:18;;;;;;;;;;;;;;;20.94;41.73;95928.63;1039957;28;884;-59
2021/10/17 02:07:48;;;;;;;;;;;;;;;20.93;41.94;95933.13;1036093;28;1018;-59
2021/10/17 02:08:18;;;;;;;;;;;;;;;20.94;41.88;95939.97;1036052;28;1183;-58
2021/10/17 02:08:49;;;;;;;;;;;;;;;20.94;41.94;95939.16;1036315;28;912;-59
2021/10/17 02:09:19;;;;;;;;;;;;;;;20.92;41.79;95936.81;1036362;28;793;-59
2021/10/17 02:09:49;;;;;;;;;;;;;;;20.93;41.69;95933.13;1036197;28;1213;-59
2021/10/17 02:10:20;;;;;;;;;;;;;;;20.92;41.78;95941.28;1040379;28;1071;-59
2021/10/17 02:10:50;;;;;;;;;;;;;;;20.91;41.89;95937.88;1039577;28;1002;-61
2021/10/17 02:11:20;;;;;;;;;;;;;;;20.92;41.91;95936.81;1044806;28;868;-59
2021/10/17 02:11:51;;;;;;;;;;;;;;;20.94;41.83;95939.16;1044440;28;820;-58
2021/10/17 02:12:25;;;;;;;;;;;;;;;20.93;41.87;95946.31;1043731;28;817;-57
2021/10/17 02:12:56;;;;;;;;;;;;;;;20.92;42.03;95930.75;1043996;28;737;-58
2021/10/17 02:13:26;;;;;;;;;;;;;;;20.92;41.71;95936.81;1045011;28;774;-59
2021/10/17 02:13:56;;;;;;;;;;;;;;;20.93;41.94;95938.41;1044463;28;840;-59
2021/10/17 02:14:27;;;;;;;;;;;;;;;20.92;41.92;95941.28;1043775;28;1176;-58
2021/10/17 02:14:58;;;;;;;;;;;;;;;20.90;42.12;95938.13;1044439;28;678;-58
2021/10/17 02:15:29;;;;;;;;;;;;;;;20.91;41.79;95934.47;1044319;28;1906;-59
2021/10/17 02:15:59;;;;;;;;;;;;;;;20.93;41.86;95929.69;1044295;28;935;-58
2021/10/17 02:16:29;;;;;;;;;;;;;;;20.91;41.82;95935.25;1048615;28;907;-59
2021/10/17 02:17:00;;;;;;;;;;;;;;;20.94;41.66;95939.97;1047818;28;986;-58
2021/10/17 02:17:31;;;;;;;;;;;;;;;20.93;41.65;95940.25;1043977;28;962;-59
2021/10/17 02:18:01;;;;;;;;;;;;;;;20.91;41.84;95937.88;1043466;28;817;-56
2021/10/17 02:18:32;;;;;;;;;;;;;;;20.91;41.99;95934.47;1044059;28;872;-57
2021/10/17 02:19:04;;;;;;;;;;;;;;;20.91;41.91;95935.25;1040146;28;999;-59
2021/10/17 02:19:35;;;;;;;;;;;;;;;20.90;41.93;95932.88;1039475;28;1232;-59
2021/10/17 02:20:05;;;;;;;;;;;;;;;20.91;42.00;95934.47;1040325;28;1029;-59
2021/10/17 02:20:36;;;;;;;;;;;;;;;20.93;41.57;95935.75;1036263;28;1011;-59
2021/10/17 02:21:06;;;;;;;;;;;;;;;20.90;41.94;95933.66;1040033;28;1395;-58
2021/10/17 02:21:37;;;;;;;;;;;;;;;20.91;41.78;95934.47;1035369;28;860;-59
2021/10/17 02:22:07;;;;;;;;;;;;;;;20.90;41.78;95935.50;1035599;28;783;-59
2021/10/17 02:22:37;;;;;;;;;;;;;;;20.89;41.78;95933.94;1035850;28;1066;-60
2021/10/17 02:23:08;;;;;;;;;;;;;;;20.90;41.95;95935.50;1036161;28;1074;-58
2021/10/17 02:23:38;;;;;;;;;;;;;;;20.91;41.65;95927.34;1040308;28;1026;-60
2021/10/17 02:24:11;;;;;;;;;;;;;;;20.90;41.85;95936.28;1040231;28;1199;-58
2021/10/17 02:24:41;;;;;;;;;;;;;;;20.90;41.66;95933.66;1039926;28;1295;-59
2021/10/17 02:25:11;;;;;;;;;;;;;;;20.90;41.78;95932.88;1040191;28;1071;-60
2021/10/17 02:25:42;;;;;;;;;;;;;;;20.93;41.73;95937.59;1035224;28;836;-59
2021/10/17 02:26:12;;;;;;;;;;;;;;;20.91;41.67;95934.47;1036248;28;742;-59
2021/10/17 02:26:43;;;;;;;;;;;;;;;20.92;41.66;95936.00;1035733;28;1428;-60
2021/10/17 02:27:13;;;;;;;;;;;;;;;20.88;41.84;95941.03;1040183;28;1120;-60
2021/10/17 02:27:43;;;;;;;;;;;;;;;20.89;41.73;95947.09;1044227;28;967;-59
2021/10/17 02:28:14;;;;;;;;;;;;;;;20.89;41.85;95937.38;1040286;28;1106;-60
2021/10/17 02:28:44;;;;;;;;;;;;;;;20.88;41.78;95941.03;1040270;28;910;-58
2021/10/17 02:29:15;;;;;;;;;;;;;;;20.88;41.81;95940.25;1044224;28;762;-55
2021/10/17 02:29:45;;;;;;;;;;;;;;;20.89;41.80;95944.47;1040373;28;1233;-56
2021/10/17 02:30:16;;;;;;;;;;;;;;;20.88;41.96;95941.03;1044449;28;767;-59
2021/10/17 02:30:46;;;;;;;;;;;;;;;20.90;41.92;95943.41;1039758;28;1584;-58
2021/10/17 02:31:16;;;;;;;;;;;;;;;20.89;41.89;95933.94;1040247;28;832;-59
2021/10/17 02:31:46;;;;;;;;;;;;;;;20.90;41.67;95944.19;1043918;28;783;-59
2021/10/17 02:32:17;;;;;;;;;;;;;;;20.88;41.88;95938.41;1040184;28;835;-59
2021/10/17 02:32:47;;;;;;;;;;;;;;;20.89;41.64;95942.63;1043176;28;701;-58
2021/10/17 02:33:18;;;;;;;;;;;;;;;20.88;41.67;95943.69;1044260;28;800;-59
2021/10/17 02:33:48;;;;;;;;;;;;;;;20.88;41.81;95932.34;1044245;28;784;-59
2021/10/17 02:34:18;;;;;;;;;;;;;;;20.89;41.64;95941.84;1044024;28;840;-58
2021/10/17 02:34:49;;;;;;;;;;;;;;;20.86;41.97;95937.91;1044221;28;800;-59
2021/10/17 02:35:19;;;;;;;;;;;;;;;20.86;41.69;95935.25;1040223;28;1006;-59
2021/10/17 02:35:49;;;;;;;;;;;;;;;20.87;41.90;95936.06;1035875;28;2033;-59
2021/10/17 02:36:20;;;;;;;;;;;;;;;20.86;41.73;95937.09;1036353;28;832;-58
2021/10/17 02:36:50;;;;;;;;;;;;;;;20.86;41.88;95937.09;1035677;28;1109;-59
2021/10/17 02:37:21;;;;;;;;;;;;;;;20.86;41.89;95937.09;1036432;28;749;-59
2021/10/17 02:37:51;;;;;;;;;;;;;;;20.86;41.62;95932.63;1035873;28;962;-58
2021/10/17 02:38:21;;;;;;;;;;;;;;;20.88;41.73;95935.78;1036400;28;789;-59
2021/10/17 02:38:52;;;;;;;;;;;;;;;20.89;41.84;95936.56;1035738;28;919;-56
2021/10/17 02:39:22;;;;;;;;;;;;;;;20.88;41.66;95943.69;1036315;28;1622;-57
2021/10/17 02:39:52;;;;;;;;;;;;;;;20.88;41.54;95934.97;1027782;28;1372;-59
2021/10/17 02:40:23;;;;;;;;;;;;;;;20.87;41.79;95944.75;1028001;28;888;-56
2021/10/17 02:40:53;;;;;;;;;;;;;;;20.86;41.83;95937.91;1027707;28;797;-60
2021/10/17 02:41:24;;;;;;;;;;;;;;;20.86;41.63;95943.16;1032462;28;816;-60
2021/10/17 02:41:54;;;;;;;;;;;;;;;20.85;41.71;95941.59;1035526;28;1240;-60
2021/10/17 02:42:24;;;;;;;;;;;;;;;20.84;41.95;95945.28;1035941;28;848;-60
2021/10/17 02:42:55;;;;;;;;;;;;;;;20.89;41.88;95940.00;1039891;28;1110;-60
2021/10/17 02:43:25;;;;;;;;;;;;;;;20.89;41.72;95937.38;1040248;28;792;-60
2021/10/17 02:43:56;;;;;;;;;;;;;;;20.89;41.66;95937.38;1035924;28;851;-59
2021/10/17 02:44:26;;;;;;;;;;;;;;;20.87;41.76;95936.84;1039734;28;801;-60
2021/10/17 02:44:57;;;;;;;;;;;;;;;20.90;41.79;95946.84;1040490;28;743;-60
2021/10/17 02:45:27;;;;;;;;;;;;;;;20.89;41.52;95940.00;1035804;28;825;-58